createdAt,value
2017-08-20T00:02:20.221Z,12.79
2017-08-20T00:04:45.983Z,12.76
2017-08-20T00:07:11.731Z,12.52
2017-08-20T00:09:37.523Z,12.64
2017-08-20T00:12:03.294Z,12.65
2017-08-20T00:14:29.047Z,12.75
2017-08-20T00:16:54.825Z,12.45
2017-08-20T00:19:20.572Z,12.50
2017-08-20T00:21:46.371Z,12.50
2017-08-20T00:24:12.163Z,12.52
2017-08-20T00:26:38.129Z,12.36
2017-08-20T00:29:03.876Z,12.45
2017-08-20T00:31:29.639Z,12.50
2017-08-20T00:33:55.483Z,12.20
2017-08-20T00:36:21.247Z,12.35
2017-08-20T00:38:47.015Z,12.40
2017-08-20T00:41:12.815Z,12.37
2017-08-20T00:43:38.638Z,12.40
2017-08-20T00:46:04.403Z,12.41
2017-08-20T00:48:30.219Z,12.24
2017-08-20T00:50:56.007Z,12.26
2017-08-20T00:53:21.783Z,12.18
2017-08-20T00:55:47.658Z,12.19
2017-08-20T00:58:13.470Z,11.99
2017-08-20T01:00:39.235Z,12.11
2017-08-20T01:03:05.003Z,12.08
2017-08-20T01:05:30.862Z,12.40
2017-08-20T01:07:56.623Z,12.51
2017-08-20T01:10:22.388Z,12.51
2017-08-20T01:12:48.178Z,12.25
2017-08-20T01:15:13.932Z,12.63
2017-08-20T01:17:39.719Z,12.64
2017-08-20T01:20:05.488Z,12.81
2017-08-20T01:22:31.296Z,12.74
2017-08-20T01:24:57.039Z,12.89
2017-08-20T01:27:22.836Z,12.75
2017-08-20T01:29:48.588Z,12.74
2017-08-20T01:32:14.339Z,12.66
2017-08-20T01:34:40.182Z,12.57
2017-08-20T01:37:05.971Z,12.34
2017-08-20T01:39:31.734Z,12.38
2017-08-20T01:41:57.515Z,12.23
2017-08-20T01:44:23.283Z,12.10
2017-08-20T01:46:49.023Z,12.30
2017-08-20T01:49:14.827Z,12.33
2017-08-20T01:51:40.590Z,12.37
2017-08-20T01:54:06.344Z,12.31
2017-08-20T01:56:32.127Z,12.28
2017-08-20T01:58:57.946Z,12.44
2017-08-20T02:01:23.691Z,12.38
2017-08-20T02:03:49.555Z,12.35
2017-08-20T02:06:15.324Z,12.41
2017-08-20T02:08:41.127Z,12.43
2017-08-20T02:11:06.876Z,12.56
2017-08-20T02:13:32.625Z,12.51
2017-08-20T02:15:58.406Z,12.91
2017-08-20T02:18:24.180Z,12.82
2017-08-20T02:20:49.934Z,12.78
2017-08-20T02:23:15.729Z,12.82
2017-08-20T02:25:41.523Z,12.76
2017-08-20T02:28:07.303Z,12.75
2017-08-20T02:30:33.056Z,12.57
2017-08-20T02:32:58.831Z,12.72
2017-08-20T02:35:24.643Z,12.66
2017-08-20T02:37:50.491Z,12.54
2017-08-20T02:40:16.262Z,12.59
2017-08-20T02:42:42.035Z,12.59
2017-08-20T02:45:07.783Z,12.71
2017-08-20T02:47:33.604Z,12.84
2017-08-20T02:49:59.350Z,12.54
2017-08-20T02:52:25.099Z,12.51
2017-08-20T02:54:50.981Z,12.79
2017-08-20T02:57:16.747Z,12.78
2017-08-20T02:59:42.559Z,12.69
2017-08-20T03:02:08.322Z,12.81
2017-08-20T03:04:34.054Z,12.83
2017-08-20T03:06:59.846Z,12.87
2017-08-20T03:09:25.627Z,12.58
2017-08-20T03:11:51.364Z,12.87
2017-08-20T03:14:17.154Z,12.81
2017-08-20T03:16:42.920Z,12.88
2017-08-20T03:19:08.675Z,12.92
2017-08-20T03:21:34.478Z,12.96
2017-08-20T03:24:00.338Z,12.95
2017-08-20T03:26:26.124Z,12.80
2017-08-20T03:28:51.906Z,12.77
2017-08-20T03:31:17.655Z,12.63
2017-08-20T03:33:43.531Z,12.76
2017-08-20T03:36:09.308Z,12.90
2017-08-20T03:38:35.075Z,12.95
2017-08-20T03:41:00.902Z,13.00
2017-08-20T03:43:26.671Z,13.11
2017-08-20T03:45:52.470Z,13.20
2017-08-20T03:48:18.267Z,13.20
2017-08-20T03:50:44.055Z,13.09
2017-08-20T03:53:09.806Z,12.99
2017-08-20T03:55:35.578Z,12.92
2017-08-20T03:58:01.342Z,12.74
2017-08-20T04:00:27.114Z,12.59
2017-08-20T04:02:52.895Z,12.71
2017-08-20T04:05:18.635Z,12.64
2017-08-20T04:07:44.441Z,12.54
2017-08-20T04:10:10.210Z,12.58
2017-08-20T04:12:35.943Z,12.52
2017-08-20T04:15:01.763Z,12.46
2017-08-20T04:17:27.515Z,12.66
2017-08-20T04:19:53.271Z,12.50
2017-08-20T04:22:19.127Z,12.64
2017-08-20T04:24:44.922Z,12.55
2017-08-20T04:27:10.675Z,12.82
2017-08-20T04:29:36.463Z,12.90
2017-08-20T04:32:02.339Z,12.97
2017-08-20T04:34:28.107Z,12.95
2017-08-20T04:36:53.874Z,13.02
2017-08-20T04:39:19.643Z,13.01
2017-08-20T04:41:45.401Z,12.99
2017-08-20T04:44:11.182Z,13.20
2017-08-20T04:46:36.955Z,13.21
2017-08-20T04:49:02.694Z,13.20
2017-08-20T04:51:28.466Z,13.26
2017-08-20T04:53:54.202Z,13.27
2017-08-20T04:56:20.007Z,13.26
2017-08-20T04:58:45.778Z,13.36
2017-08-20T05:01:11.523Z,13.33
2017-08-20T05:03:37.343Z,13.45
2017-08-20T05:06:03.087Z,13.64
2017-08-20T05:08:28.830Z,13.59
2017-08-20T05:10:54.611Z,13.36
2017-08-20T05:13:20.351Z,13.60
2017-08-20T05:15:46.135Z,13.46
2017-08-20T05:18:11.951Z,13.60
2017-08-20T05:20:37.710Z,13.54
2017-08-20T05:23:03.483Z,13.58
2017-08-20T05:25:29.231Z,13.55
2017-08-20T05:27:55.031Z,13.45
2017-08-20T05:30:20.834Z,13.54
2017-08-20T05:32:46.600Z,13.53
2017-08-20T05:35:12.347Z,13.67
2017-08-20T05:37:38.171Z,14.05
2017-08-20T05:40:03.940Z,14.21
2017-08-20T05:42:29.719Z,14.25
2017-08-20T05:44:55.458Z,14.42
2017-08-20T05:47:21.267Z,14.61
2017-08-20T05:49:47.063Z,14.62
2017-08-20T05:52:12.936Z,14.68
2017-08-20T05:54:39.303Z,14.98
2017-08-20T05:57:05.146Z,15.09
2017-08-20T05:59:30.927Z,15.14
2017-08-20T06:01:56.686Z,15.25
2017-08-20T06:04:22.551Z,15.44
2017-08-20T06:06:48.302Z,15.42
2017-08-20T06:09:14.080Z,15.47
2017-08-20T06:11:39.896Z,15.56
2017-08-20T06:14:05.708Z,15.64
2017-08-20T06:16:31.471Z,15.58
2017-08-20T06:18:57.258Z,15.77
2017-08-20T06:21:23.022Z,15.83
2017-08-20T06:23:48.781Z,16.07
2017-08-20T06:26:14.666Z,16.23
2017-08-20T06:28:40.439Z,16.13
2017-08-20T06:31:06.255Z,16.34
2017-08-20T06:33:32.018Z,16.41
2017-08-20T06:35:57.763Z,16.45
2017-08-20T06:38:23.548Z,16.63
2017-08-20T06:40:49.323Z,16.55
2017-08-20T06:43:15.147Z,16.67
2017-08-20T06:45:40.928Z,17.01
2017-08-20T06:48:06.727Z,17.17
2017-08-20T06:50:32.484Z,17.04
2017-08-20T06:52:58.276Z,16.85
2017-08-20T06:55:24.067Z,17.03
2017-08-20T06:57:49.807Z,17.33
2017-08-20T07:00:15.599Z,17.09
2017-08-20T07:02:41.364Z,17.32
2017-08-20T07:05:07.113Z,17.73
2017-08-20T07:07:32.904Z,18.14
2017-08-20T07:09:58.671Z,18.38
2017-08-20T07:12:24.462Z,18.99
2017-08-20T07:14:50.199Z,19.24
2017-08-20T07:17:16.155Z,18.93
2017-08-20T07:19:41.911Z,19.26
2017-08-20T07:22:07.663Z,19.59
2017-08-20T07:24:33.447Z,20.07
2017-08-20T07:26:59.247Z,19.65
2017-08-20T07:29:24.995Z,19.81
2017-08-20T07:31:50.767Z,19.77
2017-08-20T07:34:16.650Z,20.09
2017-08-20T07:36:42.409Z,20.29
2017-08-20T07:39:08.207Z,20.56
2017-08-20T07:41:33.942Z,20.15
2017-08-20T07:43:59.694Z,20.16
2017-08-20T07:46:25.501Z,20.54
2017-08-20T07:48:51.249Z,20.76
2017-08-20T07:51:17.021Z,20.92
2017-08-20T07:53:42.912Z,21.01
2017-08-20T07:56:08.695Z,20.59
2017-08-20T07:58:34.462Z,20.51
2017-08-20T08:01:00.284Z,20.23
2017-08-20T08:03:26.059Z,19.90
2017-08-20T08:05:51.810Z,19.87
2017-08-20T08:08:17.686Z,19.94
2017-08-20T08:10:43.448Z,19.85
2017-08-20T08:13:09.254Z,19.73
2017-08-20T08:15:35.005Z,20.07
2017-08-20T08:18:00.894Z,19.47
2017-08-20T08:20:26.651Z,19.72
2017-08-20T08:22:52.407Z,20.63
2017-08-20T08:25:18.270Z,20.89
2017-08-20T08:27:44.017Z,20.79
2017-08-20T08:30:09.771Z,20.98
2017-08-20T08:32:35.563Z,21.53
2017-08-20T08:35:01.573Z,21.19
2017-08-20T08:37:27.739Z,21.52
2017-08-20T08:39:53.895Z,20.92
2017-08-20T08:42:19.854Z,20.70
2017-08-20T08:44:45.610Z,21.23
2017-08-20T08:47:11.399Z,21.77
2017-08-20T08:49:37.219Z,22.03
2017-08-20T08:52:02.963Z,21.99
2017-08-20T08:54:28.731Z,21.42
2017-08-20T08:56:54.558Z,21.66
2017-08-20T08:59:20.338Z,22.13
2017-08-20T09:01:46.090Z,21.75
2017-08-20T09:04:11.974Z,21.93
2017-08-20T09:06:37.728Z,22.56
2017-08-20T09:09:03.516Z,22.06
2017-08-20T09:11:29.301Z,22.38
2017-08-20T09:13:55.065Z,21.79
2017-08-20T09:16:20.863Z,21.00
2017-08-20T09:18:46.687Z,20.76
2017-08-20T09:21:12.486Z,20.99
2017-08-20T09:23:38.251Z,21.06
2017-08-20T09:26:04.022Z,21.74
2017-08-20T09:28:29.831Z,21.87
2017-08-20T09:30:55.608Z,21.67
2017-08-20T09:33:21.436Z,21.89
2017-08-20T09:35:47.252Z,20.79
2017-08-20T09:38:13.011Z,21.31
2017-08-20T09:40:38.768Z,21.96
2017-08-20T09:43:04.561Z,21.16
2017-08-20T09:45:30.445Z,21.14
2017-08-20T09:47:56.288Z,20.94
2017-08-20T09:50:22.043Z,20.78
2017-08-20T09:52:47.851Z,20.21
2017-08-20T09:55:13.647Z,20.27
2017-08-20T09:57:39.436Z,21.82
2017-08-20T10:00:05.483Z,21.72
2017-08-20T10:02:31.327Z,22.25
2017-08-20T10:04:57.195Z,22.84
2017-08-20T10:07:22.955Z,22.79
2017-08-20T10:09:48.745Z,22.85
2017-08-20T10:12:14.552Z,22.79
2017-08-20T10:14:40.313Z,21.84
2017-08-20T10:17:06.174Z,21.74
2017-08-20T10:19:31.935Z,21.28
2017-08-20T10:21:57.730Z,21.65
2017-08-20T10:24:23.491Z,21.30
2017-08-20T10:26:49.247Z,21.56
2017-08-20T10:29:15.059Z,22.61
2017-08-20T10:31:40.875Z,23.18
2017-08-20T10:34:06.619Z,23.10
2017-08-20T10:36:33.227Z,23.46
2017-08-20T10:38:59.051Z,23.51
2017-08-20T10:41:24.803Z,23.87
2017-08-20T10:43:50.575Z,22.89
2017-08-20T10:46:16.407Z,23.01
2017-08-20T10:48:42.244Z,23.12
2017-08-20T10:51:08.035Z,23.15
2017-08-20T10:53:33.796Z,24.13
2017-08-20T10:55:59.531Z,24.10
2017-08-20T10:58:25.310Z,24.42
2017-08-20T11:00:51.067Z,23.93
2017-08-20T11:03:16.838Z,24.14
2017-08-20T11:05:42.602Z,23.61
2017-08-20T11:08:08.442Z,23.55
2017-08-20T11:10:34.182Z,24.43
2017-08-20T11:12:59.939Z,24.18
2017-08-20T11:15:25.839Z,24.59
2017-08-20T11:17:51.690Z,23.05
2017-08-20T11:20:17.474Z,24.15
2017-08-20T11:22:43.247Z,24.57
2017-08-20T11:25:09.022Z,24.93
2017-08-20T11:27:34.837Z,24.86
2017-08-20T11:30:00.599Z,24.15
2017-08-20T11:32:26.385Z,24.19
2017-08-20T11:34:52.174Z,23.49
2017-08-20T11:37:17.912Z,24.78
2017-08-20T11:39:43.691Z,23.66
2017-08-20T11:42:09.516Z,25.02
2017-08-20T11:44:35.275Z,24.97
2017-08-20T11:47:01.095Z,24.49
2017-08-20T11:49:26.839Z,23.97
2017-08-20T11:51:52.639Z,24.22
2017-08-20T11:54:18.384Z,24.15
2017-08-20T11:56:44.143Z,23.03
2017-08-20T11:59:09.918Z,23.85
2017-08-20T12:01:36.558Z,24.82
2017-08-20T12:04:02.378Z,25.56
2017-08-20T12:06:28.131Z,25.88
2017-08-20T12:08:53.926Z,25.39
2017-08-20T12:11:19.690Z,25.90
2017-08-20T12:13:45.486Z,24.78
2017-08-20T12:16:11.247Z,24.18
2017-08-20T12:18:37.015Z,24.68
2017-08-20T12:21:02.832Z,24.01
2017-08-20T12:23:28.615Z,24.54
2017-08-20T12:25:54.434Z,25.69
2017-08-20T12:28:20.204Z,25.03
2017-08-20T12:30:45.981Z,25.53
2017-08-20T12:33:11.887Z,26.45
2017-08-20T12:35:37.663Z,25.58
2017-08-20T12:38:03.439Z,26.44
2017-08-20T12:40:29.259Z,26.66
2017-08-20T12:42:55.147Z,26.80
2017-08-20T12:45:20.969Z,26.13
2017-08-20T12:47:46.834Z,26.09
2017-08-20T12:50:13.267Z,24.82
2017-08-20T12:52:39.593Z,26.49
2017-08-20T12:55:07.332Z,26.75
2017-08-20T12:57:33.306Z,26.45
2017-08-20T12:59:59.102Z,25.04
2017-08-20T13:02:24.922Z,26.08
2017-08-20T13:04:50.676Z,26.54
2017-08-20T13:07:16.446Z,26.00
2017-08-20T13:09:42.315Z,26.44
2017-08-20T13:12:08.099Z,25.84
2017-08-20T13:14:33.899Z,26.48
2017-08-20T13:16:59.647Z,26.07
2017-08-20T13:19:25.426Z,25.94
2017-08-20T13:21:51.212Z,23.91
2017-08-20T13:24:16.958Z,23.50
2017-08-20T13:26:42.708Z,23.92
2017-08-20T13:29:08.470Z,24.91
2017-08-20T13:31:34.275Z,25.30
2017-08-20T13:34:00.028Z,25.38
2017-08-20T13:36:25.854Z,25.22
2017-08-20T13:38:51.623Z,25.94
2017-08-20T13:41:17.376Z,26.38
2017-08-20T13:43:43.162Z,26.04
2017-08-20T13:46:08.925Z,26.25
2017-08-20T13:48:34.783Z,26.70
2017-08-20T13:51:00.551Z,26.64
2017-08-20T13:53:26.325Z,26.31
2017-08-20T13:55:52.212Z,26.32
2017-08-20T13:58:17.951Z,25.72
2017-08-20T14:00:45.803Z,25.51
2017-08-20T14:03:11.633Z,26.13
2017-08-20T14:05:37.380Z,25.82
2017-08-20T14:08:03.162Z,25.37
2017-08-20T14:10:28.915Z,25.63
2017-08-20T14:12:54.786Z,26.46
2017-08-20T14:15:20.530Z,26.04
2017-08-20T14:17:46.337Z,25.12
2017-08-20T14:20:12.122Z,25.33
2017-08-20T14:22:37.912Z,25.12
2017-08-20T14:25:03.717Z,25.84
2017-08-20T14:27:29.488Z,26.25
2017-08-20T14:29:55.246Z,25.56
2017-08-20T14:32:21.026Z,26.00
2017-08-20T14:34:46.791Z,25.84
2017-08-20T14:37:12.599Z,26.00
2017-08-20T14:39:38.380Z,25.54
2017-08-20T14:42:04.146Z,25.71
2017-08-20T14:44:30.018Z,25.62
2017-08-20T14:46:55.783Z,25.50
2017-08-20T14:49:21.550Z,25.28
2017-08-20T14:51:47.331Z,26.06
2017-08-20T14:54:13.177Z,24.68
2017-08-20T14:56:38.929Z,25.63
2017-08-20T14:59:04.695Z,24.18
2017-08-20T15:01:30.444Z,22.72
2017-08-20T15:03:56.223Z,22.72
2017-08-20T15:06:22.006Z,22.72
2017-08-20T15:08:47.835Z,24.49
2017-08-20T15:11:13.582Z,25.44
2017-08-20T15:13:39.382Z,25.69
2017-08-20T15:16:05.118Z,26.16
2017-08-20T15:18:30.904Z,26.80
2017-08-20T15:20:56.711Z,26.12
2017-08-20T15:23:22.562Z,25.34
2017-08-20T15:25:48.311Z,24.35
2017-08-20T15:28:14.139Z,24.87
2017-08-20T15:30:39.878Z,25.32
2017-08-20T15:33:05.671Z,26.73
2017-08-20T15:35:31.486Z,26.00
2017-08-20T15:37:57.359Z,25.68
2017-08-20T15:40:23.146Z,26.10
2017-08-20T15:42:48.898Z,24.77
2017-08-20T15:45:14.722Z,24.63
2017-08-20T15:47:40.510Z,24.81
2017-08-20T15:50:06.259Z,25.30
2017-08-20T15:52:32.040Z,24.87
2017-08-20T15:54:57.883Z,24.72
2017-08-20T15:57:23.636Z,24.42
2017-08-20T15:59:49.435Z,23.77
2017-08-20T16:02:15.213Z,23.88
2017-08-20T16:04:40.979Z,23.28
2017-08-20T16:07:06.765Z,23.54
2017-08-20T16:09:32.535Z,23.51
2017-08-20T16:11:58.298Z,23.73
2017-08-20T16:14:24.046Z,23.65
2017-08-20T16:16:49.815Z,23.45
2017-08-20T16:19:15.644Z,23.62
2017-08-20T16:21:41.404Z,23.62
2017-08-20T16:24:07.146Z,24.29
2017-08-20T16:26:33.027Z,23.36
2017-08-20T16:28:58.835Z,23.82
2017-08-20T16:31:25.424Z,23.28
2017-08-20T16:33:51.206Z,23.61
2017-08-20T16:36:17.027Z,23.98
2017-08-20T16:38:42.867Z,24.07
2017-08-20T16:41:08.648Z,23.63
2017-08-20T16:43:34.425Z,23.17
2017-08-20T16:46:00.231Z,22.94
2017-08-20T16:48:26.043Z,23.36
2017-08-20T16:50:51.832Z,23.21
2017-08-20T16:53:17.640Z,23.54
2017-08-20T16:55:43.407Z,22.47
2017-08-20T16:58:09.158Z,22.19
2017-08-20T17:00:34.933Z,22.15
2017-08-20T17:03:00.711Z,21.94
2017-08-20T17:05:26.475Z,21.78
2017-08-20T17:07:52.350Z,21.27
2017-08-20T17:10:18.135Z,21.06
2017-08-20T17:12:43.950Z,20.55
2017-08-20T17:15:09.703Z,20.51
2017-08-20T17:17:35.547Z,20.40
2017-08-20T17:20:01.342Z,20.22
2017-08-20T17:22:27.163Z,20.01
2017-08-20T17:24:52.985Z,19.85
2017-08-20T17:27:18.755Z,19.74
2017-08-20T17:29:44.638Z,19.47
2017-08-20T17:32:10.504Z,19.43
2017-08-20T17:34:36.350Z,19.53
2017-08-20T17:37:02.099Z,19.52
2017-08-20T17:39:27.840Z,19.28
2017-08-20T17:41:53.654Z,19.15
2017-08-20T17:44:19.426Z,19.05
2017-08-20T17:46:45.192Z,19.05
2017-08-20T17:49:11.006Z,18.73
2017-08-20T17:51:36.743Z,18.68
2017-08-20T17:54:02.489Z,18.47
2017-08-20T17:56:28.287Z,18.37
2017-08-20T17:58:54.038Z,18.33
2017-08-20T18:01:19.862Z,18.18
2017-08-20T18:03:45.711Z,17.97
2017-08-20T18:06:12.462Z,17.93
2017-08-20T18:08:38.924Z,18.16
2017-08-20T18:11:04.688Z,17.88
2017-08-20T18:13:30.486Z,17.47
2017-08-20T18:15:56.222Z,17.69
2017-08-20T18:18:21.995Z,17.73
2017-08-20T18:20:47.819Z,17.62
2017-08-20T18:23:13.607Z,17.60
2017-08-20T18:25:39.380Z,17.45
2017-08-20T18:28:05.146Z,17.48
2017-08-20T18:30:30.923Z,17.40
2017-08-20T18:32:56.734Z,17.23
2017-08-20T18:35:22.575Z,17.31
2017-08-20T18:37:48.311Z,17.06
2017-08-20T18:40:14.095Z,17.17
2017-08-20T18:42:39.830Z,17.02
2017-08-20T18:45:05.611Z,17.05
2017-08-20T18:47:31.356Z,17.00
2017-08-20T18:49:57.183Z,16.90
2017-08-20T18:52:22.963Z,16.87
2017-08-20T18:54:48.739Z,16.81
2017-08-20T18:57:14.530Z,16.62
2017-08-20T18:59:40.266Z,16.60
2017-08-20T19:02:06.130Z,16.56
2017-08-20T19:04:31.919Z,16.34
2017-08-20T19:06:57.787Z,16.36
2017-08-20T19:09:24.378Z,16.26
2017-08-20T19:11:50.146Z,16.17
2017-08-20T19:14:15.938Z,16.08
2017-08-20T19:16:41.737Z,15.93
2017-08-20T19:19:07.529Z,15.88
2017-08-20T19:21:33.276Z,15.90
2017-08-20T19:23:59.086Z,15.87
2017-08-20T19:26:24.833Z,15.82
2017-08-20T19:28:50.587Z,15.74
2017-08-20T19:31:16.377Z,15.41
2017-08-20T19:33:42.303Z,15.32
2017-08-20T19:36:08.099Z,15.35
2017-08-20T19:38:33.851Z,15.45
2017-08-20T19:40:59.646Z,15.31
2017-08-20T19:43:25.414Z,15.38
2017-08-20T19:45:51.197Z,15.23
2017-08-20T19:48:16.946Z,15.28
2017-08-20T19:50:42.722Z,15.07
2017-08-20T19:53:08.555Z,15.14
2017-08-20T19:55:34.326Z,14.99
2017-08-20T19:58:00.075Z,14.99
2017-08-20T20:00:25.843Z,14.91
2017-08-20T20:02:51.659Z,14.89
2017-08-20T20:05:17.395Z,14.93
2017-08-20T20:07:43.141Z,14.89
2017-08-20T20:10:08.931Z,14.87
2017-08-20T20:12:34.683Z,14.71
2017-08-20T20:15:00.455Z,14.58
2017-08-20T20:17:26.235Z,14.54
2017-08-20T20:19:52.003Z,14.52
2017-08-20T20:22:17.779Z,14.40
2017-08-20T20:24:43.547Z,14.34
2017-08-20T20:27:09.331Z,14.37
2017-08-20T20:29:35.154Z,14.38
2017-08-20T20:32:00.960Z,14.30
2017-08-20T20:34:26.702Z,14.24
2017-08-20T20:36:52.475Z,14.31
2017-08-20T20:39:18.785Z,14.16
2017-08-20T20:41:44.623Z,14.20
2017-08-20T20:44:10.374Z,14.06
2017-08-20T20:46:36.158Z,14.04
2017-08-20T20:49:01.931Z,14.02
2017-08-20T20:51:27.705Z,14.10
2017-08-20T20:53:53.535Z,13.91
2017-08-20T20:56:19.330Z,13.86
2017-08-20T20:58:45.066Z,13.78
2017-08-20T21:01:10.831Z,13.79
2017-08-20T21:03:36.607Z,13.74
2017-08-20T21:06:02.511Z,13.74
2017-08-20T21:08:28.298Z,13.68
2017-08-20T21:10:54.039Z,13.61
2017-08-20T21:13:19.842Z,13.47
2017-08-20T21:15:45.650Z,13.45
2017-08-20T21:18:11.421Z,13.25
2017-08-20T21:20:37.206Z,13.34
2017-08-20T21:23:02.971Z,13.23
2017-08-20T21:25:28.719Z,13.10
2017-08-20T21:27:54.503Z,13.12
2017-08-20T21:30:20.292Z,13.23
2017-08-20T21:32:46.088Z,13.27
2017-08-20T21:35:11.842Z,13.04
2017-08-20T21:37:37.683Z,13.17
2017-08-20T21:40:03.539Z,13.27
2017-08-20T21:42:29.333Z,13.21
2017-08-20T21:44:55.099Z,13.11
2017-08-20T21:47:20.876Z,13.04
2017-08-20T21:49:46.622Z,13.01
2017-08-20T21:52:12.434Z,13.16
2017-08-20T21:54:39.172Z,13.07
2017-08-20T21:57:05.149Z,13.08
2017-08-20T21:59:30.935Z,13.08
2017-08-20T22:01:56.691Z,12.88
2017-08-20T22:04:22.479Z,13.03
2017-08-20T22:06:48.219Z,13.02
2017-08-20T22:09:14.013Z,12.81
2017-08-20T22:11:39.763Z,12.71
2017-08-20T22:14:05.541Z,12.90
2017-08-20T22:16:31.283Z,12.75
2017-08-20T22:18:57.135Z,12.81
2017-08-20T22:21:22.962Z,12.76
2017-08-20T22:23:48.742Z,12.94
2017-08-20T22:26:14.479Z,12.90
2017-08-20T22:28:40.335Z,12.80
2017-08-20T22:31:06.163Z,12.93
2017-08-20T22:33:31.902Z,12.86
2017-08-20T22:35:57.712Z,12.97
2017-08-20T22:38:23.471Z,12.97
2017-08-20T22:40:49.246Z,13.00
2017-08-20T22:43:15.031Z,13.00
2017-08-20T22:45:40.802Z,12.90
2017-08-20T22:48:06.571Z,12.93
2017-08-20T22:50:32.333Z,12.90
2017-08-20T22:52:58.131Z,12.92
2017-08-20T22:55:23.913Z,12.84
2017-08-20T22:57:49.674Z,12.88
2017-08-20T23:00:15.471Z,12.96
2017-08-20T23:02:41.219Z,12.91
2017-08-20T23:05:06.979Z,12.73
2017-08-20T23:07:32.774Z,12.70
2017-08-20T23:09:58.519Z,12.93
2017-08-20T23:12:24.335Z,12.74
2017-08-20T23:14:50.131Z,12.79
2017-08-20T23:17:15.871Z,12.68
2017-08-20T23:19:41.638Z,12.80
2017-08-20T23:22:07.415Z,12.80
2017-08-20T23:24:33.151Z,12.60
2017-08-20T23:26:58.949Z,12.64
2017-08-20T23:29:24.687Z,12.60
2017-08-20T23:31:50.455Z,12.59
2017-08-20T23:34:16.235Z,12.48
2017-08-20T23:36:41.981Z,12.45
2017-08-20T23:39:07.754Z,12.45
2017-08-20T23:41:33.538Z,12.51
2017-08-20T23:43:59.271Z,12.45
2017-08-20T23:46:25.039Z,12.25
2017-08-20T23:48:50.831Z,12.30
2017-08-20T23:51:16.581Z,12.26
2017-08-20T23:53:42.355Z,12.17
2017-08-20T23:56:08.204Z,12.27
2017-08-20T23:58:33.970Z,12.31
